Ogden, UT (84404)

5:29 PM MDT on July 28, 2015 (GMT -0600)
Harrisville 1411 | | Change Station
CLOSE
Current Station
Personal Weather Station
Location: Ogden, UT
Elevation: 4310 ft
Nearby Weather Stations

Elev 4310 ft 41.26 °N, 111.98 °W | Updated 4 minutes ago

Clear
Clear
74.1 °F
Feels Like 75 °F
N
5.0
Wind Variable Wind from WNW
Gusts 9.0 mph

Today
High -- | Low -- °F
--% Chance of Precip.
Yesterday
High -- | Low -- °F
Precip. -- in
6:19 AM 8:49 PM
Waxing Gibbous, 92% visible
Pressure 30.11 in
Visibility 10.0 miles
Clouds Clear
Heat Index 75 °F
Dew Point 28 °F
Humidity 18%
Rainfall 0.00 in
Snow Depth Not available.
UV 6 out of 12
Pollen 5.00 out of 12
Air Quality Not available.
Flu Activity Not available.
METAR KOGD 282253Z AUTO VRB04KT 10SM CLR 24/M05 A3023 RMK AO2 SLP195 T02391050 TSNO

More Conditions Fewer Conditions

Pressure 30.11 in
Visibility 10.0 miles
Clouds Clear
Heat Index 75 °F
Dew Point 28 °F
Humidity 18%
Rainfall 0.00 in
Snow Depth Not available.
UV 6 out of 12
Pollen 5.00 out of 12
Air Quality Not available.
Flu Activity Not available.
METAR KOGD 282253Z AUTO VRB04KT 10SM CLR 24/M05 A3023 RMK AO2 SLP195 T02391050 TSNO

More Conditions Fewer Conditions

10-Day Weather Forecast

×

Almanac

Astronomy

Jul. 28, 2015 Rise Set
Actual Time
Civil Twilight
Nautical Twilight
Astronomical Twilight
Moon
Length of Visible Light
Length of Day
Tomorrow will be .
, % of the Moon is Illuminated

Today's Extremes

State Highs State Lows

Community

WunderPhotos

Upload Photos

1,841,966 photos uploaded!

WunderBlogs® & News

Nearby

Air Quality

  Air Quality AQ Index Pollutant
Not available.

Snow Depth

Station Depth Elevation

Earthquake Activity

City Distance Mag. Time & Date
Minimum magnitude displayed is 2.5.

Coastal Water Temperatures

Place Temperature

Stations

Nearby Weather Stations

Station Location Temp. Windchill Dew Point Humidity Wind Precip. Elev Updated Type